sensor_id;sensor_type;location;lat;lon;timestamp;P1;P2;P0
28026;PMS5003;15344;52.342;-1.290;2023-04-30T00:00:25;20;16;
28026;PMS5003;15344;52.342;-1.290;2023-04-30T00:02:50;20;17;
28026;PMS5003;15344;52.342;-1.290;2023-04-30T00:05:16;16;16;
28026;PMS5003;15344;52.342;-1.290;2023-04-30T00:07:41;20;19;
28026;PMS5003;15344;52.342;-1.290;2023-04-30T00:10:07;16;16;
28026;PMS5003;15344;52.342;-1.290;2023-04-30T00:12:32;18;17;
28026;PMS5003;15344;52.342;-1.290;2023-04-30T00:14:57;17;14;
28026;PMS5003;15344;52.342;-1.290;2023-04-30T00:17:22;28;24;
28026;PMS5003;15344;52.342;-1.290;2023-04-30T00:19:48;25;22;
28026;PMS5003;15344;52.342;-1.290;2023-04-30T00:22:14;21;19;
28026;PMS5003;15344;52.342;-1.290;2023-04-30T00:24:40;25;21;
28026;PMS5003;15344;52.342;-1.290;2023-04-30T00:27:05;22;18;
28026;PMS5003;15344;52.342;-1.290;2023-04-30T00:29:31;26;22;
28026;PMS5003;15344;52.342;-1.290;2023-04-30T00:31:56;25;24;
28026;PMS5003;15344;52.342;-1.290;2023-04-30T00:34:22;23;21;
28026;PMS5003;15344;52.342;-1.290;2023-04-30T00:36:47;27;23;
28026;PMS5003;15344;52.342;-1.290;2023-04-30T00:39:13;21;19;
28026;PMS5003;15344;52.342;-1.290;2023-04-30T00:41:39;25;24;
28026;PMS5003;15344;52.342;-1.290;2023-04-30T00:44:04;25;25;
28026;PMS5003;15344;52.342;-1.290;2023-04-30T00:46:30;27;24;
28026;PMS5003;15344;52.342;-1.290;2023-04-30T00:48:55;38;24;
28026;PMS5003;15344;52.342;-1.290;2023-04-30T00:51:20;35;31;
28026;PMS5003;15344;52.342;-1.290;2023-04-30T00:53:46;34;30;
28026;PMS5003;15344;52.342;-1.290;2023-04-30T00:56:12;27;26;
28026;PMS5003;15344;52.342;-1.290;2023-04-30T00:58:37;41;36;
28026;PMS5003;15344;52.342;-1.290;2023-04-30T01:01:02;30;27;
28026;PMS5003;15344;52.342;-1.290;2023-04-30T01:03:27;33;32;
28026;PMS5003;15344;52.342;-1.290;2023-04-30T01:05:53;36;31;
28026;PMS5003;15344;52.342;-1.290;2023-04-30T01:08:18;38;33;
28026;PMS5003;15344;52.342;-1.290;2023-04-30T01:10:45;37;33;
28026;PMS5003;15344;52.342;-1.290;2023-04-30T01:13:11;43;33;
28026;PMS5003;15344;52.342;-1.290;2023-04-30T01:15:37;40;35;
28026;PMS5003;15344;52.342;-1.290;2023-04-30T01:18:02;41;36;
28026;PMS5003;15344;52.342;-1.290;2023-04-30T01:20:26;42;38;
28026;PMS5003;15344;52.342;-1.290;2023-04-30T01:22:53;38;31;
28026;PMS5003;15344;52.342;-1.290;2023-04-30T01:25:21;42;35;
28026;PMS5003;15344;52.342;-1.290;2023-04-30T01:30:08;34;30;
28026;PMS5003;15344;52.342;-1.290;2023-04-30T01:32:33;31;29;
28026;PMS5003;15344;52.342;-1.290;2023-04-30T01:34:59;41;34;
28026;PMS5003;15344;52.342;-1.290;2023-04-30T01:37:27;34;29;
28026;PMS5003;15344;52.342;-1.290;2023-04-30T01:39:56;31;29;
28026;PMS5003;15344;52.342;-1.290;2023-04-30T01:42:17;36;33;
28026;PMS5003;15344;52.342;-1.290;2023-04-30T01:47:08;44;35;
28026;PMS5003;15344;52.342;-1.290;2023-04-30T01:49:36;42;35;
28026;PMS5003;15344;52.342;-1.290;2023-04-30T01:51:59;41;35;
28026;PMS5003;15344;52.342;-1.290;2023-04-30T01:54:25;41;36;
28026;PMS5003;15344;52.342;-1.290;2023-04-30T01:56:50;37;31;
28026;PMS5003;15344;52.342;-1.290;2023-04-30T01:59:15;39;32;
28026;PMS5003;15344;52.342;-1.290;2023-04-30T02:01:40;37;32;
28026;PMS5003;15344;52.342;-1.290;2023-04-30T02:04:05;34;27;
28026;PMS5003;15344;52.342;-1.290;2023-04-30T02:06:30;39;33;
28026;PMS5003;15344;52.342;-1.290;2023-04-30T02:08:56;34;32;
28026;PMS5003;15344;52.342;-1.290;2023-04-30T02:11:21;37;32;
28026;PMS5003;15344;52.342;-1.290;2023-04-30T02:13:47;42;35;
28026;PMS5003;15344;52.342;-1.290;2023-04-30T02:16:13;39;32;
28026;PMS5003;15344;52.342;-1.290;2023-04-30T02:18:38;36;29;
28026;PMS5003;15344;52.342;-1.290;2023-04-30T02:21:04;35;31;
28026;PMS5003;15344;52.342;-1.290;2023-04-30T02:23:30;37;29;
28026;PMS5003;15344;52.342;-1.290;2023-04-30T02:25:55;40;31;
28026;PMS5003;15344;52.342;-1.290;2023-04-30T02:28:20;36;34;
28026;PMS5003;15344;52.342;-1.290;2023-04-30T02:30:46;37;32;
28026;PMS5003;15344;52.342;-1.290;2023-04-30T02:33:11;35;29;
28026;PMS5003;15344;52.342;-1.290;2023-04-30T02:35:37;34;31;
28026;PMS5003;15344;52.342;-1.290;2023-04-30T02:38:02;36;32;
28026;PMS5003;15344;52.342;-1.290;2023-04-30T02:40:27;39;31;
28026;PMS5003;15344;52.342;-1.290;2023-04-30T02:42:52;37;27;
28026;PMS5003;15344;52.342;-1.290;2023-04-30T02:45:18;31;29;
28026;PMS5003;15344;52.342;-1.290;2023-04-30T02:47:43;32;31;
28026;PMS5003;15344;52.342;-1.290;2023-04-30T02:50:09;43;37;
28026;PMS5003;15344;52.342;-1.290;2023-04-30T02:52:34;28;27;
28026;PMS5003;15344;52.342;-1.290;2023-04-30T02:55:06;40;32;
28026;PMS5003;15344;52.342;-1.290;2023-04-30T02:57:26;35;31;
28026;PMS5003;15344;52.342;-1.290;2023-04-30T02:59:51;37;31;
28026;PMS5003;15344;52.342;-1.290;2023-04-30T03:02:17;39;33;
28026;PMS5003;15344;52.342;-1.290;2023-04-30T03:04:42;34;30;
28026;PMS5003;15344;52.342;-1.290;2023-04-30T03:07:07;39;30;
28026;PMS5003;15344;52.342;-1.290;2023-04-30T03:09:32;36;32;
28026;PMS5003;15344;52.342;-1.290;2023-04-30T03:11:58;36;31;
28026;PMS5003;15344;52.342;-1.290;2023-04-30T03:14:23;42;36;
28026;PMS5003;15344;52.342;-1.290;2023-04-30T03:16:49;37;30;
28026;PMS5003;15344;52.342;-1.290;2023-04-30T03:19:15;37;32;
28026;PMS5003;15344;52.342;-1.290;2023-04-30T03:21:40;36;33;
28026;PMS5003;15344;52.342;-1.290;2023-04-30T03:24:06;44;38;
28026;PMS5003;15344;52.342;-1.290;2023-04-30T03:26:31;37;33;
28026;PMS5003;15344;52.342;-1.290;2023-04-30T03:28:57;40;36;
28026;PMS5003;15344;52.342;-1.290;2023-04-30T03:31:22;37;34;
28026;PMS5003;15344;52.342;-1.290;2023-04-30T03:33:47;39;33;
28026;PMS5003;15344;52.342;-1.290;2023-04-30T03:36:12;31;29;
28026;PMS5003;15344;52.342;-1.290;2023-04-30T03:38:39;39;30;
28026;PMS5003;15344;52.342;-1.290;2023-04-30T03:41:03;37;29;
28026;PMS5003;15344;52.342;-1.290;2023-04-30T03:43:28;37;33;
28026;PMS5003;15344;52.342;-1.290;2023-04-30T03:45:54;43;36;
28026;PMS5003;15344;52.342;-1.290;2023-04-30T03:48:19;49;37;
28026;PMS5003;15344;52.342;-1.290;2023-04-30T03:50:44;46;36;
28026;PMS5003;15344;52.342;-1.290;2023-04-30T03:53:10;47;38;
28026;PMS5003;15344;52.342;-1.290;2023-04-30T03:55:35;37;35;
28026;PMS5003;15344;52.342;-1.290;2023-04-30T03:58:01;45;37;
28026;PMS5003;15344;52.342;-1.290;2023-04-30T04:00:26;39;33;
28026;PMS5003;15344;52.342;-1.290;2023-04-30T04:02:52;39;32;
28026;PMS5003;15344;52.342;-1.290;2023-04-30T04:05:17;35;33;
28026;PMS5003;15344;52.342;-1.290;2023-04-30T04:07:43;44;38;
28026;PMS5003;15344;52.342;-1.290;2023-04-30T04:10:09;49;38;
28026;PMS5003;15344;52.342;-1.290;2023-04-30T04:12:34;39;31;
28026;PMS5003;15344;52.342;-1.290;2023-04-30T04:14:59;44;37;
28026;PMS5003;15344;52.342;-1.290;2023-04-30T04:17:25;42;39;
28026;PMS5003;15344;52.342;-1.290;2023-04-30T04:19:51;42;35;
28026;PMS5003;15344;52.342;-1.290;2023-04-30T04:22:16;42;34;
28026;PMS5003;15344;52.342;-1.290;2023-04-30T04:24:41;38;33;
28026;PMS5003;15344;52.342;-1.290;2023-04-30T04:27:06;44;37;
28026;PMS5003;15344;52.342;-1.290;2023-04-30T04:29:31;43;37;
28026;PMS5003;15344;52.342;-1.290;2023-04-30T04:31:57;43;38;
28026;PMS5003;15344;52.342;-1.290;2023-04-30T04:34:23;43;37;
28026;PMS5003;15344;52.342;-1.290;2023-04-30T04:36:48;37;33;
28026;PMS5003;15344;52.342;-1.290;2023-04-30T04:39:13;51;42;
28026;PMS5003;15344;52.342;-1.290;2023-04-30T04:41:38;41;34;
28026;PMS5003;15344;52.342;-1.290;2023-04-30T04:44:04;42;35;
28026;PMS5003;15344;52.342;-1.290;2023-04-30T04:46:30;37;31;
28026;PMS5003;15344;52.342;-1.290;2023-04-30T04:48:56;36;29;
28026;PMS5003;15344;52.342;-1.290;2023-04-30T04:51:21;39;36;
28026;PMS5003;15344;52.342;-1.290;2023-04-30T04:53:47;38;34;
28026;PMS5003;15344;52.342;-1.290;2023-04-30T04:56:12;41;38;
28026;PMS5003;15344;52.342;-1.290;2023-04-30T04:58:37;44;37;
28026;PMS5003;15344;52.342;-1.290;2023-04-30T05:01:02;43;34;
28026;PMS5003;15344;52.342;-1.290;2023-04-30T05:03:29;43;34;
28026;PMS5003;15344;52.342;-1.290;2023-04-30T05:05:53;48;38;
28026;PMS5003;15344;52.342;-1.290;2023-04-30T05:08:18;42;32;
28026;PMS5003;15344;52.342;-1.290;2023-04-30T05:10:43;36;31;
28026;PMS5003;15344;52.342;-1.290;2023-04-30T05:13:09;38;34;
28026;PMS5003;15344;52.342;-1.290;2023-04-30T05:15:35;38;35;
28026;PMS5003;15344;52.342;-1.290;2023-04-30T05:18:01;46;40;
28026;PMS5003;15344;52.342;-1.290;2023-04-30T05:20:26;37;32;
28026;PMS5003;15344;52.342;-1.290;2023-04-30T05:22:51;36;34;
28026;PMS5003;15344;52.342;-1.290;2023-04-30T05:25:17;36;33;
28026;PMS5003;15344;52.342;-1.290;2023-04-30T05:27:43;38;31;
28026;PMS5003;15344;52.342;-1.290;2023-04-30T05:30:08;39;33;
28026;PMS5003;15344;52.342;-1.290;2023-04-30T05:32:34;38;33;
28026;PMS5003;15344;52.342;-1.290;2023-04-30T05:34:59;37;32;
28026;PMS5003;15344;52.342;-1.290;2023-04-30T05:37:25;41;35;
28026;PMS5003;15344;52.342;-1.290;2023-04-30T05:39:50;50;39;
28026;PMS5003;15344;52.342;-1.290;2023-04-30T05:42:16;46;34;
28026;PMS5003;15344;52.342;-1.290;2023-04-30T05:44:41;45;33;
28026;PMS5003;15344;52.342;-1.290;2023-04-30T05:47:07;35;30;
28026;PMS5003;15344;52.342;-1.290;2023-04-30T05:49:33;36;32;
28026;PMS5003;15344;52.342;-1.290;2023-04-30T05:51:58;34;29;
28026;PMS5003;15344;52.342;-1.290;2023-04-30T05:54:24;40;30;
28026;PMS5003;15344;52.342;-1.290;2023-04-30T05:56:49;40;35;
28026;PMS5003;15344;52.342;-1.290;2023-04-30T05:59:15;37;35;
28026;PMS5003;15344;52.342;-1.290;2023-04-30T06:01:40;45;37;
28026;PMS5003;15344;52.342;-1.290;2023-04-30T06:04:06;44;36;
28026;PMS5003;15344;52.342;-1.290;2023-04-30T06:06:31;39;33;
28026;PMS5003;15344;52.342;-1.290;2023-04-30T06:08:57;39;34;
28026;PMS5003;15344;52.342;-1.290;2023-04-30T06:11:22;42;35;
28026;PMS5003;15344;52.342;-1.290;2023-04-30T06:13:47;39;33;
28026;PMS5003;15344;52.342;-1.290;2023-04-30T06:16:13;38;35;
28026;PMS5003;15344;52.342;-1.290;2023-04-30T06:18:38;37;33;
28026;PMS5003;15344;52.342;-1.290;2023-04-30T06:21:04;37;30;
28026;PMS5003;15344;52.342;-1.290;2023-04-30T06:23:29;37;31;
28026;PMS5003;15344;52.342;-1.290;2023-04-30T06:25:55;48;42;
28026;PMS5003;15344;52.342;-1.290;2023-04-30T06:28:20;44;36;
28026;PMS5003;15344;52.342;-1.290;2023-04-30T06:30:46;44;39;
28026;PMS5003;15344;52.342;-1.290;2023-04-30T06:33:12;33;27;
28026;PMS5003;15344;52.342;-1.290;2023-04-30T06:35:38;38;31;
28026;PMS5003;15344;52.342;-1.290;2023-04-30T06:38:02;33;32;
28026;PMS5003;15344;52.342;-1.290;2023-04-30T06:40:28;40;36;
28026;PMS5003;15344;52.342;-1.290;2023-04-30T06:42:53;39;33;
28026;PMS5003;15344;52.342;-1.290;2023-04-30T06:45:19;36;34;
28026;PMS5003;15344;52.342;-1.290;2023-04-30T06:47:44;43;40;
28026;PMS5003;15344;52.342;-1.290;2023-04-30T06:50:09;37;33;
28026;PMS5003;15344;52.342;-1.290;2023-04-30T06:52:35;43;34;
28026;PMS5003;15344;52.342;-1.290;2023-04-30T06:55:00;43;41;
28026;PMS5003;15344;52.342;-1.290;2023-04-30T06:57:26;41;36;
28026;PMS5003;15344;52.342;-1.290;2023-04-30T06:59:51;45;42;
28026;PMS5003;15344;52.342;-1.290;2023-04-30T07:02:17;42;31;
28026;PMS5003;15344;52.342;-1.290;2023-04-30T07:04:43;40;36;
28026;PMS5003;15344;52.342;-1.290;2023-04-30T07:07:08;47;35;
28026;PMS5003;15344;52.342;-1.290;2023-04-30T07:09:33;45;36;
28026;PMS5003;15344;52.342;-1.290;2023-04-30T07:11:59;42;38;
28026;PMS5003;15344;52.342;-1.290;2023-04-30T07:14:24;39;30;
28026;PMS5003;15344;52.342;-1.290;2023-04-30T07:16:49;39;36;
28026;PMS5003;15344;52.342;-1.290;2023-04-30T07:19:15;46;37;
28026;PMS5003;15344;52.342;-1.290;2023-04-30T07:21:40;40;35;
28026;PMS5003;15344;52.342;-1.290;2023-04-30T07:24:06;41;35;
28026;PMS5003;15344;52.342;-1.290;2023-04-30T07:26:31;38;33;
28026;PMS5003;15344;52.342;-1.290;2023-04-30T07:28:56;35;30;
28026;PMS5003;15344;52.342;-1.290;2023-04-30T07:31:22;38;33;
28026;PMS5003;15344;52.342;-1.290;2023-04-30T07:33:47;36;34;
28026;PMS5003;15344;52.342;-1.290;2023-04-30T07:36:13;33;29;
28026;PMS5003;15344;52.342;-1.290;2023-04-30T07:38:39;43;35;
28026;PMS5003;15344;52.342;-1.290;2023-04-30T07:41:04;37;32;
28026;PMS5003;15344;52.342;-1.290;2023-04-30T07:43:30;38;33;
28026;PMS5003;15344;52.342;-1.290;2023-04-30T07:45:55;40;36;
28026;PMS5003;15344;52.342;-1.290;2023-04-30T07:48:21;40;36;
28026;PMS5003;15344;52.342;-1.290;2023-04-30T07:50:46;40;39;
28026;PMS5003;15344;52.342;-1.290;2023-04-30T07:53:11;44;37;
28026;PMS5003;15344;52.342;-1.290;2023-04-30T07:55:37;36;33;
28026;PMS5003;15344;52.342;-1.290;2023-04-30T07:58:02;31;28;
28026;PMS5003;15344;52.342;-1.290;2023-04-30T08:00:27;37;35;
28026;PMS5003;15344;52.342;-1.290;2023-04-30T08:02:53;38;33;
28026;PMS5003;15344;52.342;-1.290;2023-04-30T08:05:18;39;38;
28026;PMS5003;15344;52.342;-1.290;2023-04-30T08:07:44;37;35;
28026;PMS5003;15344;52.342;-1.290;2023-04-30T08:10:10;40;36;
28026;PMS5003;15344;52.342;-1.290;2023-04-30T08:12:35;41;34;
28026;PMS5003;15344;52.342;-1.290;2023-04-30T08:15:01;43;39;
28026;PMS5003;15344;52.342;-1.290;2023-04-30T08:17:25;37;35;
28026;PMS5003;15344;52.342;-1.290;2023-04-30T08:19:51;41;37;
28026;PMS5003;15344;52.342;-1.290;2023-04-30T08:22:16;41;33;
28026;PMS5003;15344;52.342;-1.290;2023-04-30T08:24:43;52;43;
28026;PMS5003;15344;52.342;-1.290;2023-04-30T08:27:08;45;39;
28026;PMS5003;15344;52.342;-1.290;2023-04-30T08:29:33;33;32;
28026;PMS5003;15344;52.342;-1.290;2023-04-30T08:32:00;43;40;
28026;PMS5003;15344;52.342;-1.290;2023-04-30T08:34:24;42;37;
28026;PMS5003;15344;52.342;-1.290;2023-04-30T08:36:50;42;37;
28026;PMS5003;15344;52.342;-1.290;2023-04-30T08:39:16;41;33;
28026;PMS5003;15344;52.342;-1.290;2023-04-30T08:41:42;39;37;
28026;PMS5003;15344;52.342;-1.290;2023-04-30T08:44:07;40;36;
28026;PMS5003;15344;52.342;-1.290;2023-04-30T08:46:33;52;43;
28026;PMS5003;15344;52.342;-1.290;2023-04-30T08:48:58;36;34;
28026;PMS5003;15344;52.342;-1.290;2023-04-30T08:51:24;42;38;
28026;PMS5003;15344;52.342;-1.290;2023-04-30T08:53:49;36;34;
28026;PMS5003;15344;52.342;-1.290;2023-04-30T08:56:15;34;28;
28026;PMS5003;15344;52.342;-1.290;2023-04-30T08:58:40;39;38;
28026;PMS5003;15344;52.342;-1.290;2023-04-30T09:01:06;39;34;
28026;PMS5003;15344;52.342;-1.290;2023-04-30T09:03:31;40;35;
28026;PMS5003;15344;52.342;-1.290;2023-04-30T09:05:56;35;32;
28026;PMS5003;15344;52.342;-1.290;2023-04-30T09:10:47;33;31;
28026;PMS5003;15344;52.342;-1.290;2023-04-30T09:13:12;41;31;
28026;PMS5003;15344;52.342;-1.290;2023-04-30T09:15:38;43;34;
28026;PMS5003;15344;52.342;-1.290;2023-04-30T09:18:08;37;29;
28026;PMS5003;15344;52.342;-1.290;2023-04-30T09:20:29;34;32;
28026;PMS5003;15344;52.342;-1.290;2023-04-30T09:23:03;36;33;
28026;PMS5003;15344;52.342;-1.290;2023-04-30T09:25:19;43;34;
28026;PMS5003;15344;52.342;-1.290;2023-04-30T09:27:45;39;35;
28026;PMS5003;15344;52.342;-1.290;2023-04-30T09:30:12;34;32;
28026;PMS5003;15344;52.342;-1.290;2023-04-30T09:32:41;45;35;
28026;PMS5003;15344;52.342;-1.290;2023-04-30T09:35:02;33;32;
28026;PMS5003;15344;52.342;-1.290;2023-04-30T09:39:53;36;34;
28026;PMS5003;15344;52.342;-1.290;2023-04-30T09:42:18;37;32;
28026;PMS5003;15344;52.342;-1.290;2023-04-30T09:44:44;35;31;
28026;PMS5003;15344;52.342;-1.290;2023-04-30T09:47:10;42;38;
28026;PMS5003;15344;52.342;-1.290;2023-04-30T09:49:36;34;32;
28026;PMS5003;15344;52.342;-1.290;2023-04-30T09:52:00;40;34;
28026;PMS5003;15344;52.342;-1.290;2023-04-30T09:54:27;40;34;
28026;PMS5003;15344;52.342;-1.290;2023-04-30T09:56:51;37;31;
28026;PMS5003;15344;52.342;-1.290;2023-04-30T09:59:16;42;30;
28026;PMS5003;15344;52.342;-1.290;2023-04-30T10:01:42;36;33;
28026;PMS5003;15344;52.342;-1.290;2023-04-30T10:04:07;35;34;
28026;PMS5003;15344;52.342;-1.290;2023-04-30T10:06:32;35;34;
28026;PMS5003;15344;52.342;-1.290;2023-04-30T10:08:58;39;31;
28026;PMS5003;15344;52.342;-1.290;2023-04-30T10:11:25;38;34;
28026;PMS5003;15344;52.342;-1.290;2023-04-30T10:13:51;37;31;
28026;PMS5003;15344;52.342;-1.290;2023-04-30T10:16:14;42;33;
28026;PMS5003;15344;52.342;-1.290;2023-04-30T10:18:39;40;32;
28026;PMS5003;15344;52.342;-1.290;2023-04-30T10:21:05;35;28;
28026;PMS5003;15344;52.342;-1.290;2023-04-30T10:23:30;40;35;
28026;PMS5003;15344;52.342;-1.290;2023-04-30T10:25:55;40;36;
28026;PMS5003;15344;52.342;-1.290;2023-04-30T10:28:20;44;35;
28026;PMS5003;15344;52.342;-1.290;2023-04-30T10:30:46;48;36;
28026;PMS5003;15344;52.342;-1.290;2023-04-30T10:33:14;38;33;
28026;PMS5003;15344;52.342;-1.290;2023-04-30T10:35:39;42;33;
28026;PMS5003;15344;52.342;-1.290;2023-04-30T10:38:03;35;30;
28026;PMS5003;15344;52.342;-1.290;2023-04-30T10:40:27;32;29;
28026;PMS5003;15344;52.342;-1.290;2023-04-30T10:42:53;33;30;
28026;PMS5003;15344;52.342;-1.290;2023-04-30T10:45:18;38;31;
28026;PMS5003;15344;52.342;-1.290;2023-04-30T10:47:43;33;27;
28026;PMS5003;15344;52.342;-1.290;2023-04-30T10:50:09;35;33;
28026;PMS5003;15344;52.342;-1.290;2023-04-30T10:52:36;30;26;
28026;PMS5003;15344;52.342;-1.290;2023-04-30T10:55:02;34;32;
28026;PMS5003;15344;52.342;-1.290;2023-04-30T10:57:25;37;32;
28026;PMS5003;15344;52.342;-1.290;2023-04-30T10:59:51;35;26;
28026;PMS5003;15344;52.342;-1.290;2023-04-30T11:02:16;33;30;
28026;PMS5003;15344;52.342;-1.290;2023-04-30T11:07:08;37;33;
28026;PMS5003;15344;52.342;-1.290;2023-04-30T11:09:34;38;29;
28026;PMS5003;15344;52.342;-1.290;2023-04-30T11:12:00;31;28;
28026;PMS5003;15344;52.342;-1.290;2023-04-30T11:14:24;34;29;
28026;PMS5003;15344;52.342;-1.290;2023-04-30T11:16:49;44;36;
28026;PMS5003;15344;52.342;-1.290;2023-04-30T11:19:14;32;29;
28026;PMS5003;15344;52.342;-1.290;2023-04-30T11:21:39;32;29;
28026;PMS5003;15344;52.342;-1.290;2023-04-30T11:24:05;28;27;
28026;PMS5003;15344;52.342;-1.290;2023-04-30T11:28:56;34;26;
28026;PMS5003;15344;52.342;-1.290;2023-04-30T11:31:21;24;23;
28026;PMS5003;15344;52.342;-1.290;2023-04-30T11:33:46;26;24;
28026;PMS5003;15344;52.342;-1.290;2023-04-30T11:36:11;27;22;
28026;PMS5003;15344;52.342;-1.290;2023-04-30T11:38:37;30;25;
28026;PMS5003;15344;52.342;-1.290;2023-04-30T11:41:03;40;33;
28026;PMS5003;15344;52.342;-1.290;2023-04-30T11:43:28;29;25;
28026;PMS5003;15344;52.342;-1.290;2023-04-30T11:48:18;26;22;
28026;PMS5003;15344;52.342;-1.290;2023-04-30T11:50:44;27;22;
28026;PMS5003;15344;52.342;-1.290;2023-04-30T11:53:10;27;24;
28026;PMS5003;15344;52.342;-1.290;2023-04-30T11:55:34;25;22;
28026;PMS5003;15344;52.342;-1.290;2023-04-30T11:57:59;26;24;
28026;PMS5003;15344;52.342;-1.290;2023-04-30T12:00:26;26;24;
28026;PMS5003;15344;52.342;-1.290;2023-04-30T12:02:50;31;28;
28026;PMS5003;15344;52.342;-1.290;2023-04-30T12:05:16;35;27;
28026;PMS5003;15344;52.342;-1.290;2023-04-30T12:07:44;31;26;
28026;PMS5003;15344;52.342;-1.290;2023-04-30T12:10:07;27;23;
28026;PMS5003;15344;52.342;-1.290;2023-04-30T12:12:32;34;26;
28026;PMS5003;15344;52.342;-1.290;2023-04-30T12:15:07;23;21;
28026;PMS5003;15344;52.342;-1.290;2023-04-30T12:19:48;29;28;
28026;PMS5003;15344;52.342;-1.290;2023-04-30T12:22:14;28;24;
28026;PMS5003;15344;52.342;-1.290;2023-04-30T12:24:39;26;24;
28026;PMS5003;15344;52.342;-1.290;2023-04-30T12:27:04;25;20;
28026;PMS5003;15344;52.342;-1.290;2023-04-30T12:29:29;27;26;
28026;PMS5003;15344;52.342;-1.290;2023-04-30T12:31:55;29;29;
28026;PMS5003;15344;52.342;-1.290;2023-04-30T12:34:20;23;21;
28026;PMS5003;15344;52.342;-1.290;2023-04-30T12:36:46;35;28;
28026;PMS5003;15344;52.342;-1.290;2023-04-30T12:39:12;28;22;
28026;PMS5003;15344;52.342;-1.290;2023-04-30T12:41:38;27;24;
28026;PMS5003;15344;52.342;-1.290;2023-04-30T12:46:27;33;26;
28026;PMS5003;15344;52.342;-1.290;2023-04-30T12:48:53;33;30;
28026;PMS5003;15344;52.342;-1.290;2023-04-30T12:51:18;28;26;
28026;PMS5003;15344;52.342;-1.290;2023-04-30T12:53:43;25;25;
28026;PMS5003;15344;52.342;-1.290;2023-04-30T12:56:09;20;20;
28026;PMS5003;15344;52.342;-1.290;2023-04-30T12:58:34;28;23;
28026;PMS5003;15344;52.342;-1.290;2023-04-30T13:00:59;27;25;
28026;PMS5003;15344;52.342;-1.290;2023-04-30T13:03:24;25;22;
28026;PMS5003;15344;52.342;-1.290;2023-04-30T13:05:50;29;28;
28026;PMS5003;15344;52.342;-1.290;2023-04-30T13:08:16;25;23;
28026;PMS5003;15344;52.342;-1.290;2023-04-30T13:10:41;30;28;
28026;PMS5003;15344;52.342;-1.290;2023-04-30T13:13:06;31;27;
28026;PMS5003;15344;52.342;-1.290;2023-04-30T13:15:32;28;24;
28026;PMS5003;15344;52.342;-1.290;2023-04-30T13:17:57;23;22;
28026;PMS5003;15344;52.342;-1.290;2023-04-30T13:20:22;23;21;
28026;PMS5003;15344;52.342;-1.290;2023-04-30T13:22:48;26;23;
28026;PMS5003;15344;52.342;-1.290;2023-04-30T13:25:14;24;21;
28026;PMS5003;15344;52.342;-1.290;2023-04-30T13:27:39;23;22;
28026;PMS5003;15344;52.342;-1.290;2023-04-30T13:30:05;21;20;
28026;PMS5003;15344;52.342;-1.290;2023-04-30T13:32:30;24;20;
28026;PMS5003;15344;52.342;-1.290;2023-04-30T13:34:56;23;23;
28026;PMS5003;15344;52.342;-1.290;2023-04-30T13:37:21;24;23;
28026;PMS5003;15344;52.342;-1.290;2023-04-30T13:39:47;27;23;
28026;PMS5003;15344;52.342;-1.290;2023-04-30T13:42:12;20;18;
28026;PMS5003;15344;52.342;-1.290;2023-04-30T13:44:38;25;22;
28026;PMS5003;15344;52.342;-1.290;2023-04-30T13:47:04;32;24;
28026;PMS5003;15344;52.342;-1.290;2023-04-30T13:49:29;25;24;
28026;PMS5003;15344;52.342;-1.290;2023-04-30T13:51:54;28;23;
28026;PMS5003;15344;52.342;-1.290;2023-04-30T13:54:20;20;20;
28026;PMS5003;15344;52.342;-1.290;2023-04-30T13:56:45;25;23;
28026;PMS5003;15344;52.342;-1.290;2023-04-30T13:59:11;23;21;
28026;PMS5003;15344;52.342;-1.290;2023-04-30T14:01:36;22;22;
28026;PMS5003;15344;52.342;-1.290;2023-04-30T14:04:01;26;25;
28026;PMS5003;15344;52.342;-1.290;2023-04-30T14:06:27;26;22;
28026;PMS5003;15344;52.342;-1.290;2023-04-30T14:08:52;34;30;
28026;PMS5003;15344;52.342;-1.290;2023-04-30T14:11:17;24;22;
28026;PMS5003;15344;52.342;-1.290;2023-04-30T14:13:43;28;25;
28026;PMS5003;15344;52.342;-1.290;2023-04-30T14:16:08;34;30;
28026;PMS5003;15344;52.342;-1.290;2023-04-30T14:18:33;30;25;
28026;PMS5003;15344;52.342;-1.290;2023-04-30T14:20:58;31;26;
28026;PMS5003;15344;52.342;-1.290;2023-04-30T14:23:24;33;28;
28026;PMS5003;15344;52.342;-1.290;2023-04-30T14:25:50;32;28;
28026;PMS5003;15344;52.342;-1.290;2023-04-30T14:28:16;33;30;
28026;PMS5003;15344;52.342;-1.290;2023-04-30T14:30:41;35;31;
28026;PMS5003;15344;52.342;-1.290;2023-04-30T14:33:07;32;30;
28026;PMS5003;15344;52.342;-1.290;2023-04-30T14:35:32;32;29;
28026;PMS5003;15344;52.342;-1.290;2023-04-30T14:37:58;30;27;
28026;PMS5003;15344;52.342;-1.290;2023-04-30T14:40:23;33;27;
28026;PMS5003;15344;52.342;-1.290;2023-04-30T14:42:48;26;26;
28026;PMS5003;15344;52.342;-1.290;2023-04-30T14:45:14;31;27;
28026;PMS5003;15344;52.342;-1.290;2023-04-30T14:47:39;28;25;
28026;PMS5003;15344;52.342;-1.290;2023-04-30T14:50:05;26;23;
28026;PMS5003;15344;52.342;-1.290;2023-04-30T14:52:30;30;26;
28026;PMS5003;15344;52.342;-1.290;2023-04-30T14:54:55;29;26;
28026;PMS5003;15344;52.342;-1.290;2023-04-30T14:57:21;24;24;
28026;PMS5003;15344;52.342;-1.290;2023-04-30T14:59:47;28;24;
28026;PMS5003;15344;52.342;-1.290;2023-04-30T15:02:12;39;30;
28026;PMS5003;15344;52.342;-1.290;2023-04-30T15:04:37;28;27;
28026;PMS5003;15344;52.342;-1.290;2023-04-30T15:07:03;35;28;
28026;PMS5003;15344;52.342;-1.290;2023-04-30T15:09:28;34;31;
28026;PMS5003;15344;52.342;-1.290;2023-04-30T15:11:54;35;30;
28026;PMS5003;15344;52.342;-1.290;2023-04-30T15:14:19;31;28;
28026;PMS5003;15344;52.342;-1.290;2023-04-30T15:16:44;35;31;
28026;PMS5003;15344;52.342;-1.290;2023-04-30T15:19:10;28;25;
28026;PMS5003;15344;52.342;-1.290;2023-04-30T15:21:35;35;30;
28026;PMS5003;15344;52.342;-1.290;2023-04-30T15:24:00;32;22;
28026;PMS5003;15344;52.342;-1.290;2023-04-30T15:26:26;31;30;
28026;PMS5003;15344;52.342;-1.290;2023-04-30T15:28:51;32;28;
28026;PMS5003;15344;52.342;-1.290;2023-04-30T15:31:16;34;32;
28026;PMS5003;15344;52.342;-1.290;2023-04-30T15:33:41;27;25;
28026;PMS5003;15344;52.342;-1.290;2023-04-30T15:36:06;31;29;
28026;PMS5003;15344;52.342;-1.290;2023-04-30T15:38:31;29;28;
28026;PMS5003;15344;52.342;-1.290;2023-04-30T15:40:56;35;26;
28026;PMS5003;15344;52.342;-1.290;2023-04-30T15:43:22;30;30;
28026;PMS5003;15344;52.342;-1.290;2023-04-30T15:45:47;26;21;
28026;PMS5003;15344;52.342;-1.290;2023-04-30T15:48:13;26;22;
28026;PMS5003;15344;52.342;-1.290;2023-04-30T15:50:38;25;21;
28026;PMS5003;15344;52.342;-1.290;2023-04-30T15:53:04;19;18;
28026;PMS5003;15344;52.342;-1.290;2023-04-30T15:55:29;20;19;
28026;PMS5003;15344;52.342;-1.290;2023-04-30T15:57:55;19;16;
28026;PMS5003;15344;52.342;-1.290;2023-04-30T16:00:20;16;15;
28026;PMS5003;15344;52.342;-1.290;2023-04-30T16:02:45;18;14;
28026;PMS5003;15344;52.342;-1.290;2023-04-30T16:05:10;18;16;
28026;PMS5003;15344;52.342;-1.290;2023-04-30T16:07:35;13;13;
28026;PMS5003;15344;52.342;-1.290;2023-04-30T16:10:01;11;11;